createdAt,value
2023-02-06T00:01:18.363Z,101950.41
2023-02-06T00:03:47.290Z,101949.38
2023-02-06T00:06:15.593Z,101943.00
2023-02-06T00:08:42.984Z,101943.66
2023-02-06T00:11:14.562Z,101941.75
2023-02-06T00:13:41.811Z,101935.56
2023-02-06T00:16:16.321Z,101942.56
2023-02-06T00:18:43.635Z,101946.88
2023-02-06T00:21:13.082Z,101947.66
2023-02-06T00:23:40.742Z,101940.59
2023-02-06T00:26:08.344Z,101939.59
2023-02-06T00:28:37.748Z,101939.81
2023-02-06T00:31:05.708Z,101945.31
2023-02-06T00:33:33.919Z,101934.97
2023-02-06T00:36:01.760Z,101942.03
2023-02-06T00:38:31.269Z,101931.94
2023-02-06T00:40:58.960Z,101935.56
2023-02-06T00:43:26.616Z,101944.25
2023-02-06T00:45:55.437Z,101945.94
2023-02-06T00:48:22.842Z,101944.06
2023-02-06T00:50:51.014Z,101951.38
2023-02-06T00:53:18.356Z,101945.53
2023-02-06T00:55:47.048Z,101956.38
2023-02-06T00:58:15.206Z,101950.09
2023-02-06T01:00:44.393Z,101952.94
2023-02-06T01:03:12.261Z,101958.47
2023-02-06T01:05:39.505Z,101957.47
2023-02-06T01:08:06.843Z,101958.31
2023-02-06T01:10:34.297Z,101967.94
2023-02-06T01:13:02.922Z,101966.78
2023-02-06T01:15:30.133Z,101972.72
2023-02-06T01:17:57.545Z,101980.03
2023-02-06T01:20:25.118Z,101980.03
2023-02-06T01:22:52.517Z,101980.72
2023-02-06T01:25:19.997Z,101977.16
2023-02-06T01:27:48.439Z,101980.72
2023-02-06T01:30:17.184Z,101978.94
2023-02-06T01:32:44.422Z,101986.09
2023-02-06T01:35:12.867Z,101977.22
2023-02-06T01:37:41.545Z,101966.25
2023-02-06T01:40:13.117Z,101967.88
2023-02-06T01:42:40.682Z,101970.41
2023-02-06T01:45:43.477Z,101969.47
2023-02-06T01:48:17.222Z,101965.09
2023-02-06T01:50:47.911Z,101966.13
2023-02-06T01:53:17.477Z,101973.25
2023-02-06T01:55:45.940Z,101974.09
2023-02-06T01:58:17.108Z,101965.09
2023-02-06T02:00:46.086Z,101966.84
2023-02-06T02:03:13.929Z,101974.78
2023-02-06T02:05:43.735Z,101977.56
2023-02-06T02:08:18.063Z,101980.09
2023-02-06T02:10:46.084Z,101972.91
2023-02-06T02:13:13.336Z,101971.94
2023-02-06T02:15:50.184Z,101964.94
2023-02-06T02:18:34.312Z,101959.63
2023-02-06T02:21:29.268Z,101958.78
2023-02-06T02:24:06.118Z,101960.44
2023-02-06T02:27:05.357Z,101967.44
2023-02-06T02:30:21.083Z,101967.50
2023-02-06T02:33:02.177Z,101959.50
2023-02-06T02:35:41.254Z,101958.72
2023-02-06T02:38:25.065Z,101957.03
2023-02-06T02:41:01.868Z,101959.72
2023-02-06T02:43:39.938Z,101956.00
2023-02-06T02:46:16.584Z,101945.38
2023-02-06T02:48:47.102Z,101938.31
2023-02-06T02:51:16.981Z,101934.69
2023-02-06T02:53:44.529Z,101936.41
2023-02-06T02:56:20.445Z,101932.94
2023-02-06T02:58:52.828Z,101935.75
2023-02-06T03:01:27.618Z,101932.28
2023-02-06T03:03:59.143Z,101931.31
2023-02-06T03:06:42.711Z,101938.56
2023-02-06T03:09:19.506Z,101937.66
2023-02-06T03:11:54.630Z,101935.03
2023-02-06T03:14:28.535Z,101942.09
2023-02-06T03:17:03.265Z,101942.81
2023-02-06T03:19:33.180Z,101939.03
2023-02-06T03:22:03.863Z,101936.41
2023-02-06T03:24:36.392Z,101939.22
2023-02-06T03:27:06.652Z,101942.75
2023-02-06T03:29:36.781Z,101941.97
2023-02-06T03:32:08.078Z,101948.06
2023-02-06T03:34:41.838Z,101950.69
2023-02-06T03:37:11.378Z,101939.88
2023-02-06T03:39:39.099Z,101944.44
2023-02-06T03:42:08.829Z,101949.88
2023-02-06T03:44:41.680Z,101949.88
2023-02-06T03:47:11.346Z,101948.06
2023-02-06T03:49:41.193Z,101955.81
2023-02-06T03:52:12.351Z,101959.38
2023-02-06T03:54:50.157Z,101960.28
2023-02-06T03:57:19.433Z,101956.50
2023-02-06T03:59:47.744Z,101962.66
2023-02-06T04:02:16.758Z,101969.06
2023-02-06T04:04:45.476Z,101962.97
2023-02-06T04:07:19.357Z,101963.88
2023-02-06T04:09:46.615Z,101965.00
2023-02-06T04:12:14.267Z,101968.94
2023-02-06T04:14:41.497Z,101961.75
2023-02-06T04:17:09.539Z,101958.25
2023-02-06T04:19:36.968Z,101940.41
2023-02-06T04:22:06.089Z,101938.63
2023-02-06T04:24:34.988Z,101940.41
2023-02-06T04:27:02.277Z,101954.22
2023-02-06T04:29:29.503Z,101952.53
2023-02-06T04:31:57.174Z,101951.66
2023-02-06T04:34:24.493Z,101950.03
2023-02-06T04:36:52.145Z,101958.19
2023-02-06T04:39:19.751Z,101967.19
2023-02-06T04:41:48.898Z,101965.50
2023-02-06T04:44:16.264Z,101964.84
2023-02-06T04:46:43.603Z,101961.25
2023-02-06T04:49:11.317Z,101962.22
2023-02-06T04:51:39.105Z,101961.31
2023-02-06T04:54:06.974Z,101967.53
2023-02-06T04:56:34.408Z,101965.75
2023-02-06T04:59:03.272Z,101971.00
2023-02-06T05:01:31.017Z,101965.69
2023-02-06T05:03:58.764Z,101965.63
2023-02-06T05:06:26.043Z,101956.50
2023-02-06T05:08:54.440Z,101967.38
2023-02-06T05:11:23.842Z,101959.00
2023-02-06T05:13:51.126Z,101961.69
2023-02-06T05:16:19.871Z,101966.00
2023-02-06T05:18:47.459Z,101974.78
2023-02-06T05:21:16.273Z,101976.66
2023-02-06T05:23:46.636Z,101973.06
2023-02-06T05:26:13.911Z,101967.78
2023-02-06T05:28:41.168Z,101965.34
2023-02-06T05:31:08.757Z,101953.63
2023-02-06T05:33:37.452Z,101956.31
2023-02-06T05:36:06.878Z,101962.88
2023-02-06T05:38:34.431Z,101954.31
2023-02-06T05:41:01.873Z,101948.00
2023-02-06T05:43:29.596Z,101951.75
2023-02-06T05:45:56.955Z,101956.28
2023-02-06T05:48:24.498Z,101958.50
2023-02-06T05:50:53.378Z,101957.44
2023-02-06T05:53:20.614Z,101947.34
2023-02-06T05:55:47.964Z,101934.69
2023-02-06T05:58:16.421Z,101933.91
2023-02-06T06:00:43.817Z,101935.88
2023-02-06T06:03:11.099Z,101938.63
2023-02-06T06:05:38.569Z,101942.63
2023-02-06T06:08:07.789Z,101944.44
2023-02-06T06:10:35.059Z,101939.31
2023-02-06T06:13:02.395Z,101957.41
2023-02-06T06:15:29.640Z,101961.97
2023-02-06T06:17:56.888Z,101954.72
2023-02-06T06:20:24.139Z,101959.22
2023-02-06T06:22:51.336Z,101943.28
2023-02-06T06:25:20.231Z,101951.22
2023-02-06T06:27:47.609Z,101959.22
2023-02-06T06:30:14.947Z,101955.84
2023-02-06T06:32:42.391Z,101969.22
2023-02-06T06:35:12.347Z,101974.50
2023-02-06T06:37:39.689Z,101966.28
2023-02-06T06:40:08.988Z,101953.22
2023-02-06T06:42:37.968Z,101962.84
2023-02-06T06:45:06.156Z,101957.47
2023-02-06T06:47:33.507Z,101952.09
2023-02-06T06:50:00.881Z,101948.34
2023-02-06T06:52:28.159Z,101957.22
2023-02-06T06:54:55.504Z,101951.03
2023-02-06T06:57:23.337Z,101966.09
2023-02-06T06:59:52.619Z,101969.06
2023-02-06T07:02:20.145Z,101967.28
2023-02-06T07:04:47.665Z,101970.13
2023-02-06T07:07:15.261Z,101975.28
2023-02-06T07:09:42.592Z,101972.03
2023-02-06T07:12:09.837Z,101973.59
2023-02-06T07:14:37.099Z,101969.13
2023-02-06T07:17:05.877Z,101964.41
2023-02-06T07:19:33.608Z,101953.66
2023-02-06T07:22:01.583Z,101955.88
2023-02-06T07:24:29.532Z,101957.50
2023-02-06T07:26:56.910Z,101956.44
2023-02-06T07:29:24.275Z,101957.22
2023-02-06T07:31:51.587Z,101965.22
2023-02-06T07:34:20.302Z,101976.66
2023-02-06T07:36:47.553Z,101976.53
2023-02-06T07:39:14.782Z,101975.88
2023-02-06T07:41:42.005Z,101969.53
2023-02-06T07:44:10.719Z,101961.06
2023-02-06T07:46:39.934Z,101961.66
2023-02-06T07:49:07.339Z,101960.53
2023-02-06T07:51:35.927Z,101963.81
2023-02-06T07:54:03.413Z,101962.81
2023-02-06T07:56:30.581Z,101969.91
2023-02-06T07:58:57.829Z,101969.25
2023-02-06T08:01:25.166Z,101962.28
2023-02-06T08:03:53.566Z,101962.97
2023-02-06T08:06:24.388Z,101959.59
2023-02-06T08:08:55.243Z,101969.00
2023-02-06T08:11:23.195Z,101961.41
2023-02-06T08:13:50.729Z,101961.34
2023-02-06T08:16:20.832Z,101962.00
2023-02-06T08:18:48.523Z,101953.25
2023-02-06T08:21:18.938Z,101942.63
2023-02-06T08:23:46.636Z,101940.72
2023-02-06T08:26:16.876Z,101936.22
2023-02-06T08:28:45.949Z,101945.59
2023-02-06T08:31:16.160Z,101939.13
2023-02-06T08:33:44.066Z,101933.22
2023-02-06T08:36:12.322Z,101942.91
2023-02-06T08:38:40.070Z,101936.03
2023-02-06T08:41:17.546Z,101932.38
2023-02-06T08:43:45.400Z,101942.06
2023-02-06T08:46:13.156Z,101956.78
2023-02-06T08:48:40.593Z,101957.28
2023-02-06T08:51:09.389Z,101949.84
2023-02-06T08:53:37.502Z,101957.69
2023-02-06T08:56:07.435Z,101957.88
2023-02-06T08:58:37.440Z,101959.63
2023-02-06T09:01:08.552Z,101956.00
2023-02-06T09:03:36.219Z,101948.50
2023-02-06T09:06:09.870Z,101953.66
2023-02-06T09:08:38.493Z,101959.41
2023-02-06T09:11:06.076Z,101951.84
2023-02-06T09:13:33.619Z,101956.56
2023-02-06T09:16:06.651Z,101942.91
2023-02-06T09:18:40.230Z,101943.53
2023-02-06T09:21:14.094Z,101944.47
2023-02-06T09:23:44.072Z,101956.00
2023-02-06T09:26:12.500Z,101949.50
2023-02-06T09:28:39.987Z,101940.59
2023-02-06T09:31:09.714Z,101930.28
2023-02-06T09:33:38.133Z,101931.00
2023-02-06T09:36:08.033Z,101918.84
2023-02-06T09:38:36.479Z,101909.94
2023-02-06T09:41:11.672Z,101911.94
2023-02-06T09:43:42.563Z,101909.41
2023-02-06T09:46:14.575Z,101905.94
2023-02-06T09:48:43.229Z,101900.53
2023-02-06T09:51:18.981Z,101897.03
2023-02-06T09:53:55.162Z,101904.00
2023-02-06T09:56:32.640Z,101895.22
2023-02-06T09:59:06.221Z,101897.03
2023-02-06T10:01:41.191Z,101902.75
2023-02-06T10:04:29.869Z,101909.66
2023-02-06T10:07:06.631Z,101909.19
2023-02-06T10:09:40.286Z,101912.50
2023-02-06T10:12:14.426Z,101908.94
2023-02-06T10:14:47.075Z,101904.91
2023-02-06T10:17:20.863Z,101912.78
2023-02-06T10:19:53.116Z,101907.66
2023-02-06T10:22:26.594Z,101903.31
2023-02-06T10:25:11.480Z,101909.81
2023-02-06T10:27:42.218Z,101911.66
2023-02-06T10:30:15.847Z,101898.94
2023-02-06T10:32:51.478Z,101902.03
2023-02-06T10:35:35.043Z,101907.44
2023-02-06T10:38:24.127Z,101913.00
2023-02-06T10:40:56.432Z,101914.41
2023-02-06T10:43:35.093Z,101894.34
2023-02-06T10:46:16.449Z,101902.31
2023-02-06T10:48:53.586Z,101896.53
2023-02-06T10:51:28.343Z,101889.09
2023-02-06T10:53:59.791Z,101882.13
2023-02-06T10:56:30.046Z,101868.38
2023-02-06T10:59:01.143Z,101874.34
2023-02-06T11:01:32.339Z,101861.41
2023-02-06T11:04:05.884Z,101859.44
2023-02-06T11:06:33.976Z,101862.84
2023-02-06T11:09:01.587Z,101858.88
2023-02-06T11:11:31.628Z,101849.25
2023-02-06T11:14:07.126Z,101840.63
2023-02-06T11:16:35.582Z,101838.97
2023-02-06T11:19:16.756Z,101844.22
2023-02-06T11:21:50.765Z,101841.69
2023-02-06T11:24:21.455Z,101830.75
2023-02-06T11:26:52.513Z,101830.47
2023-02-06T11:29:22.328Z,101823.56
2023-02-06T11:31:53.868Z,101831.25
2023-02-06T11:34:27.181Z,101830.78
2023-02-06T11:36:57.401Z,101827.72
2023-02-06T11:39:29.070Z,101832.00
2023-02-06T11:41:58.930Z,101812.31
2023-02-06T11:44:27.950Z,101818.63
2023-02-06T11:46:55.326Z,101811.22
2023-02-06T11:49:27.252Z,101810.78
2023-02-06T11:51:57.601Z,101809.66
2023-02-06T11:54:27.542Z,101800.50
2023-02-06T11:57:00.684Z,101810.19
2023-02-06T11:59:27.982Z,101810.00
2023-02-06T12:01:55.907Z,101811.31
2023-02-06T12:04:30.569Z,101799.53
2023-02-06T12:07:01.616Z,101806.34
2023-02-06T12:09:29.262Z,101815.22
2023-02-06T12:12:03.279Z,101802.84
2023-02-06T12:14:37.082Z,101784.03
2023-02-06T12:17:09.721Z,101790.41
2023-02-06T12:19:47.224Z,101801.63
2023-02-06T12:22:20.914Z,101802.44
2023-02-06T12:24:50.962Z,101797.72
2023-02-06T12:27:22.800Z,101794.06
2023-02-06T12:29:54.375Z,101781.50
2023-02-06T12:32:28.357Z,101783.25
2023-02-06T12:34:59.258Z,101781.56
2023-02-06T12:37:33.738Z,101778.97
2023-02-06T12:40:01.420Z,101783.69
2023-02-06T12:42:42.692Z,101775.72
2023-02-06T12:45:23.516Z,101764.59
2023-02-06T12:47:55.472Z,101761.91
2023-02-06T12:50:28.654Z,101760.88
2023-02-06T12:53:00.157Z,101764.06
2023-02-06T12:55:30.179Z,101763.38
2023-02-06T12:57:58.630Z,101764.94
2023-02-06T13:01:27.946Z,101767.09
2023-02-06T13:04:02.884Z,101761.84
2023-02-06T13:06:33.366Z,101773.31
2023-02-06T13:09:03.920Z,101772.03
2023-02-06T13:11:34.007Z,101759.81
2023-02-06T13:14:07.559Z,101766.84
2023-02-06T13:16:49.535Z,101774.69
2023-02-06T13:19:21.310Z,101756.06
2023-02-06T13:21:53.339Z,101768.53
2023-02-06T13:24:21.049Z,101756.31
2023-02-06T13:27:14.922Z,101760.59
2023-02-06T13:29:44.504Z,101757.50
2023-02-06T13:32:48.490Z,101771.03
2023-02-06T13:35:21.738Z,101767.75
2023-02-06T13:38:09.351Z,101773.56
2023-02-06T13:40:37.359Z,101766.38
2023-02-06T13:43:15.367Z,101765.75
2023-02-06T13:45:46.977Z,101764.88
2023-02-06T13:48:49.931Z,101790.66
2023-02-06T13:51:43.996Z,101763.50
2023-02-06T13:54:33.974Z,101765.06
2023-02-06T13:57:16.897Z,101755.03
2023-02-06T13:59:47.521Z,101750.88
2023-02-06T14:02:22.260Z,101754.50
2023-02-06T14:04:50.936Z,101760.03
2023-02-06T14:07:48.449Z,101758.59
2023-02-06T14:10:53.697Z,101751.19
2023-02-06T14:13:36.022Z,101759.31
2023-02-06T14:16:18.458Z,101746.09
2023-02-06T14:18:52.335Z,101758.03
2023-02-06T14:21:33.979Z,101743.81
2023-02-06T14:24:19.546Z,101749.41
2023-02-06T14:26:58.873Z,101765.75
2023-02-06T14:29:36.001Z,101770.28
2023-02-06T14:32:17.949Z,101760.28
2023-02-06T14:34:53.009Z,101752.88
2023-02-06T14:37:42.663Z,101763.66
2023-02-06T14:40:21.538Z,101763.41
2023-02-06T14:42:51.902Z,101779.34
2023-02-06T14:45:28.427Z,101790.88
2023-02-06T14:47:58.785Z,101775.25
2023-02-06T14:50:28.371Z,101776.13
2023-02-06T14:52:58.350Z,101780.50
2023-02-06T14:55:31.493Z,101771.50
2023-02-06T14:58:00.945Z,101766.44
2023-02-06T15:00:31.324Z,101760.59
2023-02-06T15:03:14.429Z,101764.19
2023-02-06T15:05:43.405Z,101762.94
2023-02-06T15:08:16.738Z,101756.19
2023-02-06T15:10:44.314Z,101770.81
2023-02-06T15:13:22.433Z,101777.53
2023-02-06T15:15:54.211Z,101772.13
2023-02-06T15:18:21.520Z,101767.69
2023-02-06T15:20:54.365Z,101765.84
2023-02-06T15:23:35.928Z,101774.38
2023-02-06T15:26:11.383Z,101772.28
2023-02-06T15:28:40.358Z,101778.81
2023-02-06T15:31:18.213Z,101776.28
2023-02-06T15:33:52.221Z,101772.53
2023-02-06T15:36:23.322Z,101790.06
2023-02-06T15:38:51.781Z,101788.13
2023-02-06T15:41:21.787Z,101792.03
2023-02-06T15:43:53.091Z,101795.25
2023-02-06T15:46:23.246Z,101796.97
2023-02-06T15:48:53.009Z,101790.91
2023-02-06T15:51:23.372Z,101795.53
2023-02-06T15:53:52.441Z,101795.59
2023-02-06T15:56:26.480Z,101786.63
2023-02-06T15:58:58.168Z,101785.13
2023-02-06T16:01:25.982Z,101781.19
2023-02-06T16:03:57.308Z,101790.25
2023-02-06T16:06:24.853Z,101788.66
2023-02-06T16:08:56.301Z,101777.22
2023-02-06T16:11:30.702Z,101768.66
2023-02-06T16:14:02.910Z,101772.81
2023-02-06T16:16:30.278Z,101777.75
2023-02-06T16:18:58.477Z,101772.69
2023-02-06T16:21:30.840Z,101773.00
2023-02-06T16:24:06.382Z,101776.09
2023-02-06T16:26:42.042Z,101768.25
2023-02-06T16:29:24.725Z,101770.44
2023-02-06T16:32:01.104Z,101768.00
2023-02-06T16:34:35.362Z,101774.66
2023-02-06T16:37:03.119Z,101775.97
2023-02-06T16:39:30.488Z,101778.28
2023-02-06T16:41:57.810Z,101770.88
2023-02-06T16:44:42.974Z,101783.97
2023-02-06T16:47:16.275Z,101786.63
2023-02-06T16:49:43.576Z,101798.72
2023-02-06T16:52:17.403Z,101800.97
2023-02-06T16:54:45.470Z,101807.38
2023-02-06T16:57:21.543Z,101800.81
2023-02-06T16:59:50.389Z,101809.16
2023-02-06T17:02:17.976Z,101821.06
2023-02-06T17:04:45.423Z,101832.41
2023-02-06T17:07:16.210Z,101833.75
2023-02-06T17:09:44.929Z,101840.56
2023-02-06T17:12:14.254Z,101828.72
2023-02-06T17:14:42.078Z,101819.44
2023-02-06T17:17:12.915Z,101819.22
2023-02-06T17:19:41.398Z,101811.00
2023-02-06T17:22:10.484Z,101816.09
2023-02-06T17:24:39.196Z,101822.06
2023-02-06T17:27:13.432Z,101815.97
2023-02-06T17:29:40.912Z,101821.91
2023-02-06T17:32:11.249Z,101815.59
2023-02-06T17:34:38.529Z,101816.47
2023-02-06T17:37:06.025Z,101813.78
2023-02-06T17:39:33.791Z,101817.19
2023-02-06T17:42:01.294Z,101814.50
2023-02-06T17:44:28.508Z,101809.25
2023-02-06T17:46:55.781Z,101803.84
2023-02-06T17:49:24.463Z,101803.34
2023-02-06T17:51:52.072Z,101801.75
2023-02-06T17:54:19.357Z,101784.31
2023-02-06T17:56:46.610Z,101795.13
2023-02-06T17:59:16.638Z,101788.88
2023-02-06T18:01:44.041Z,101791.16
2023-02-06T18:04:11.800Z,101793.22
2023-02-06T18:06:40.536Z,101789.88
2023-02-06T18:09:07.919Z,101791.13
2023-02-06T18:11:35.260Z,101792.22
2023-02-06T18:14:02.609Z,101788.06
2023-02-06T18:20:27.625Z,101788.91
2023-02-06T18:22:56.368Z,101791.25
2023-02-06T18:25:23.765Z,101783.66
2023-02-06T18:27:51.069Z,101781.56
2023-02-06T18:30:18.379Z,101783.66
2023-02-06T18:32:45.774Z,101785.00
2023-02-06T18:35:13.359Z,101792.09
2023-02-06T18:37:40.674Z,101804.00
2023-02-06T18:40:10.447Z,101810.28
2023-02-06T18:42:37.783Z,101805.88
2023-02-06T18:45:05.691Z,101820.66
2023-02-06T18:47:32.993Z,101825.84
2023-02-06T18:50:00.463Z,101822.28
2023-02-06T18:52:28.011Z,101825.56
2023-02-06T18:54:55.665Z,101810.13
2023-02-06T18:57:24.376Z,101817.16
2023-02-06T18:59:52.052Z,101833.78
2023-02-06T19:02:19.430Z,101841.00
2023-02-06T19:04:46.863Z,101838.97
2023-02-06T19:07:14.400Z,101836.88
2023-02-06T19:09:42.385Z,101839.69
2023-02-06T19:12:09.824Z,101831.38
2023-02-06T19:14:38.915Z,101831.44
2023-02-06T19:17:06.444Z,101841.13
2023-02-06T19:19:33.879Z,101832.06
2023-02-06T19:22:01.410Z,101844.47
2023-02-06T19:24:28.759Z,101850.66
2023-02-06T19:26:56.177Z,101856.78
2023-02-06T19:29:34.609Z,101870.28
2023-02-06T19:32:07.661Z,101873.88
2023-02-06T19:34:37.118Z,101880.94
2023-02-06T19:37:04.566Z,101877.69
2023-02-06T19:39:32.407Z,101878.53
2023-02-06T19:41:59.831Z,101873.94
2023-02-06T19:44:27.299Z,101869.28
2023-02-06T19:46:54.638Z,101885.34
2023-02-06T19:49:23.464Z,101889.78
2023-02-06T19:51:50.841Z,101881.94
2023-02-06T19:54:18.591Z,101876.34
2023-02-06T19:56:47.516Z,101876.41
2023-02-06T19:59:17.481Z,101877.28
2023-02-06T20:01:45.430Z,101880.16
2023-02-06T20:04:13.427Z,101878.38
2023-02-06T20:06:43.709Z,101881.78
2023-02-06T20:09:12.419Z,101874.84
2023-02-06T20:11:40.735Z,101872.25
2023-02-06T20:14:08.630Z,101860.97
2023-02-06T20:16:38.590Z,101849.66
2023-02-06T20:19:07.168Z,101856.16
2023-02-06T20:21:38.911Z,101844.66
2023-02-06T20:24:11.872Z,101845.06
2023-02-06T20:26:41.624Z,101835.53
2023-02-06T20:29:14.572Z,101826.31
2023-02-06T20:31:41.953Z,101821.66
2023-02-06T20:34:09.318Z,101838.72
2023-02-06T20:36:36.668Z,101830.28
2023-02-06T20:39:04.049Z,101832.41
2023-02-06T20:41:32.781Z,101848.41
2023-02-06T20:44:01.204Z,101861.22
2023-02-06T20:46:29.965Z,101865.69
2023-02-06T20:49:01.187Z,101871.22
2023-02-06T20:51:28.837Z,101878.44
2023-02-06T20:53:56.476Z,101875.81
2023-02-06T20:56:24.684Z,101862.16
2023-02-06T20:58:53.563Z,101878.00
2023-02-06T21:01:23.260Z,101854.84
2023-02-06T21:03:53.838Z,101862.00
2023-02-06T21:06:21.223Z,101864.47
2023-02-06T21:08:49.706Z,101868.72
2023-02-06T21:11:17.399Z,101866.78
2023-02-06T21:13:44.799Z,101868.56
2023-02-06T21:16:13.764Z,101864.25
2023-02-06T21:18:41.082Z,101868.66
2023-02-06T21:21:11.311Z,101879.47
2023-02-06T21:23:40.148Z,101893.56
2023-02-06T21:26:08.674Z,101887.13
2023-02-06T21:28:37.080Z,101888.81
2023-02-06T21:31:07.298Z,101893.06
2023-02-06T21:33:37.158Z,101884.44
2023-02-06T21:36:06.172Z,101876.41
2023-02-06T21:38:34.700Z,101893.47
2023-02-06T21:41:04.744Z,101877.19
2023-02-06T21:43:32.312Z,101891.75
2023-02-06T21:46:00.074Z,101894.13
2023-02-06T21:48:27.715Z,101913.81
2023-02-06T21:50:56.843Z,101887.69
2023-02-06T21:53:24.277Z,101894.81
2023-02-06T21:55:51.719Z,101890.28
2023-02-06T21:58:19.143Z,101885.69
2023-02-06T22:00:47.700Z,101894.50
2023-02-06T22:03:15.251Z,101885.41
2023-02-06T22:05:42.616Z,101899.69
2023-02-06T22:08:11.311Z,101902.44
2023-02-06T22:10:38.662Z,101901.25
2023-02-06T22:13:06.280Z,101894.38
2023-02-06T22:15:34.100Z,101892.50
2023-02-06T22:18:01.542Z,101908.53
2023-02-06T22:20:29.008Z,101904.94
2023-02-06T22:22:56.418Z,101895.81
2023-02-06T22:25:26.077Z,101892.25
2023-02-06T22:27:54.434Z,101883.16
2023-02-06T22:30:23.112Z,101875.94
2023-02-06T22:32:50.561Z,101879.41
2023-02-06T22:35:17.974Z,101878.69
2023-02-06T22:37:45.387Z,101873.53
2023-02-06T22:40:12.871Z,101887.66
2023-02-06T22:42:41.633Z,101888.47
2023-02-06T22:45:09.660Z,101885.97
2023-02-06T22:47:37.023Z,101888.66
2023-02-06T22:50:04.884Z,101890.50
2023-02-06T22:52:33.319Z,101888.47
2023-02-06T22:55:00.726Z,101892.97
2023-02-06T22:57:28.009Z,101896.44
2023-02-06T22:59:56.721Z,101891.00
2023-02-06T23:02:24.050Z,101892.91
2023-02-06T23:04:51.613Z,101894.59
2023-02-06T23:07:18.974Z,101900.84
2023-02-06T23:09:46.296Z,101901.81
2023-02-06T23:12:13.517Z,101907.25
2023-02-06T23:14:40.808Z,101912.50
2023-02-06T23:17:10.590Z,101903.38
2023-02-06T23:19:38.496Z,101905.16
2023-02-06T23:22:06.050Z,101912.94
2023-02-06T23:24:33.521Z,101919.16
2023-02-06T23:27:00.860Z,101921.97
2023-02-06T23:29:28.331Z,101919.34
2023-02-06T23:31:55.846Z,101927.41
2023-02-06T23:34:24.631Z,101925.59
2023-02-06T23:36:52.320Z,101921.16
2023-02-06T23:39:19.724Z,101915.84
2023-02-06T23:41:47.056Z,101915.78
2023-02-06T23:44:14.307Z,101897.03
2023-02-06T23:46:41.860Z,101897.28
2023-02-06T23:49:09.760Z,101894.41
2023-02-06T23:51:38.589Z,101895.41
2023-02-06T23:54:07.199Z,101898.16
2023-02-06T23:56:35.300Z,101896.81
2023-02-06T23:59:05.855Z,101904.66
